Terminal Aerodrome Forecast
Issued by NWS

Home | Current Version | Previous Version | Graphics & Text | Print | Product List | Glossary Off
Versions: 1 2 3 4 5 6 7 8 9 10 11 12 13 14 15 16 17

000
FTUS43 KDDC 161120
TAFGCK
TAF
KGCK 161120Z 1612/1712 18011KT P6SM FEW250
     FM161500 18013G19KT P6SM FEW250
     FM161700 18017G26KT P6SM FEW250
     FM162300 18011KT P6SM SCT250=

USA.gov is the U.S. government's official web portal to all federal, state and local government web resources and services.